Time;durP1;ratioP1;P1;durP2;ratioP2;P2;SDS_P1;SDS_P2;PMS_P1;PMS_P2;Temp;Humidity;BMP_temperature;BMP_pressure;BME280_temperature;BME280_humidity;BME280_pressure;Samples;Min_cycle;Max_cycle;Signal;HPM_P1;HPM_P2
2022/09/19 00:01:58;;;;;;;1.45;0.80;;;18.20;96.70;;;;;;5078106;28;20047;-75
2022/09/19 00:04:28;;;;;;;3.03;0.80;;;18.20;96.70;;;;;;5102506;27;20608;-76
2022/09/19 00:06:57;;;;;;;2.60;1.05;;;18.20;96.70;;;;;;5100037;27;20437;-76
2022/09/19 00:09:26;;;;;;;2.42;0.80;;;18.30;96.70;;;;;;5100278;27;20040;-75
2022/09/19 00:11:55;;;;;;;2.47;1.13;;;18.30;96.70;;;;;;5108855;27;20485;-76
2022/09/19 00:14:26;;;;;;;3.00;0.68;;;18.30;96.70;;;;;;5093991;28;20043;-76
2022/09/19 00:16:59;;;;;;;1.92;0.80;;;18.20;96.70;;;;;;5095570;28;20172;-76
2022/09/19 00:19:29;;;;;;;2.42;0.68;;;18.20;96.70;;;;;;5092111;27;20687;-76
2022/09/19 00:22:00;;;;;;;1.67;0.77;;;18.10;96.70;;;;;;5104114;27;20089;-75
2022/09/19 00:24:49;;;;;;;1.95;0.73;;;18.00;96.70;;;;;;5084765;28;20096;-76
2022/09/19 00:27:20;;;;;;;1.40;0.70;;;18.00;96.70;;;;;;5100661;27;20464;-75
2022/09/19 00:29:49;;;;;;;1.40;0.77;;;18.00;96.70;;;;;;5084455;27;20424;-75
2022/09/19 00:32:19;;;;;;;1.38;0.68;;;17.90;96.70;;;;;;5103687;27;20036;-76
2022/09/19 00:34:50;;;;;;;2.08;0.77;;;18.00;96.70;;;;;;5108352;27;20046;-76
2022/09/19 00:37:41;;;;;;;2.83;0.70;;;18.10;96.70;;;;;;5099410;27;20043;-75
2022/09/19 00:40:09;;;;;;;1.40;0.73;;;18.10;96.70;;;;;;5100428;27;20516;-76
2022/09/19 00:42:38;;;;;;;2.67;0.90;;;18.10;96.70;;;;;;5099185;27;20051;-76
2022/09/19 00:45:13;;;;;;;2.72;0.73;;;18.00;96.70;;;;;;5096389;28;20039;-76
2022/09/19 00:47:47;;;;;;;1.88;0.60;;;18.10;96.70;;;;;;5101280;28;20123;-76
2022/09/19 00:50:21;;;;;;;1.85;0.90;;;18.00;96.70;;;;;;5101658;28;20126;-75
2022/09/19 00:52:53;;;;;;;4.32;0.73;;;18.00;96.70;;;;;;5097801;27;20500;-76
2022/09/19 00:55:21;;;;;;;1.27;0.70;;;18.00;96.70;;;;;;5096049;28;20622;-76
2022/09/19 00:58:05;;;;;;;1.60;0.60;;;17.90;96.70;;;;;;5093440;27;20043;-76
2022/09/19 01:00:39;;;;;;;1.88;0.80;;;18.00;96.70;;;;;;5097096;27;20044;-76
2022/09/19 01:03:09;;;;;;;4.28;1.15;;;18.00;96.70;;;;;;5098296;27;20044;-75
2022/09/19 01:05:49;;;;;;;3.20;0.70;;;18.00;96.70;;;;;;5109837;27;20047;-75
2022/09/19 01:08:49;;;;;;;1.90;0.80;;;17.90;96.70;;;;;;5101708;27;20543;-76
2022/09/19 01:11:47;;;;;;;0.88;0.70;;;17.90;96.70;;;;;;5074568;28;20157;-76
2022/09/19 01:14:25;;;;;;;;;;;17.90;96.70;;;;;;5101110;28;20054;-76
2022/09/19 01:17:01;;;;;;;1.90;0.73;;;17.90;96.70;;;;;;5099737;28;19924;-75
2022/09/19 01:19:54;;;;;;;4.43;0.77;;;17.80;96.70;;;;;;5087697;27;20529;-75
2022/09/19 01:22:29;;;;;;;2.22;0.90;;;17.70;96.70;;;;;;5104643;27;20059;-76
2022/09/19 01:25:00;;;;;;;1.95;0.82;;;17.70;96.70;;;;;;5098768;27;20204;-75
2022/09/19 01:27:54;;;;;;;1.85;0.88;;;17.80;96.70;;;;;;5099628;27;20594;-75
2022/09/19 01:30:26;;;;;;;1.05;0.68;;;17.60;96.70;;;;;;5088185;27;20082;-76
2022/09/19 01:33:01;;;;;;;1.60;0.68;;;17.60;96.70;;;;;;5099358;27;20044;-76
2022/09/19 01:35:34;;;;;;;1.33;0.95;;;17.60;96.70;;;;;;5097469;27;20054;-75
2022/09/19 01:38:07;;;;;;;2.03;0.82;;;17.60;96.70;;;;;;5101788;27;20124;-76
2022/09/19 01:40:37;;;;;;;2.05;0.70;;;17.60;96.70;;;;;;5098704;27;20051;-76
2022/09/19 01:43:13;;;;;;;1.83;0.82;;;17.70;96.70;;;;;;5082053;28;20043;-75
2022/09/19 01:45:44;;;;;;;2.33;0.85;;;17.70;96.70;;;;;;5080417;28;20051;-75
2022/09/19 01:48:22;;;;;;;1.50;0.80;;;17.70;96.70;;;;;;5081697;28;20054;-75
2022/09/19 01:51:11;;;;;;;3.08;1.00;;;17.60;96.70;;;;;;5079993;28;20040;-75
2022/09/19 01:54:01;;;;;;;3.38;1.27;;;17.60;96.70;;;;;;5099648;27;20166;-76
2022/09/19 01:56:43;;;;;;;1.67;1.05;;;17.60;96.70;;;;;;5109312;27;20044;-75
2022/09/19 01:59:21;;;;;;;1.73;0.95;;;17.70;96.70;;;;;;5095812;27;20146;-76
2022/09/19 02:02:00;;;;;;;2.40;1.40;;;17.70;96.70;;;;;;5083651;27;20134;-75
2022/09/19 02:04:34;;;;;;;3.13;1.17;;;17.70;96.70;;;;;;5099020;27;20492;-76
2022/09/19 02:07:09;;;;;;;2.75;1.20;;;17.70;96.70;;;;;;5091788;27;20055;-76
2022/09/19 02:09:50;;;;;;;2.80;1.38;;;17.80;96.70;;;;;;5095155;28;20525;-76
2022/09/19 02:12:22;;;;;;;3.20;1.30;;;17.80;96.70;;;;;;5089516;28;20137;-75
2022/09/19 02:14:57;;;;;;;3.92;1.90;;;17.80;96.70;;;;;;5094058;28;20036;-75
2022/09/19 02:17:44;;;;;;;2.63;1.25;;;17.80;96.70;;;;;;5091060;28;20412;-76
2022/09/19 02:20:20;;;;;;;3.53;1.35;;;17.80;96.70;;;;;;5094142;28;20477;-76
2022/09/19 02:22:56;;;;;;;3.72;1.50;;;17.80;96.70;;;;;;5092088;28;20043;-75
2022/09/19 02:25:32;;;;;;;3.00;1.25;;;17.90;96.70;;;;;;5100205;28;20048;-76
2022/09/19 02:28:04;;;;;;;2.53;1.35;;;17.90;96.70;;;;;;5097695;28;20075;-76
2022/09/19 02:30:33;;;;;;;3.72;1.25;;;17.90;96.70;;;;;;5094081;27;20139;-76
2022/09/19 02:33:06;;;;;;;2.95;1.10;;;18.00;96.70;;;;;;5106411;27;20118;-75
2022/09/19 02:35:43;;;;;;;1.02;0.70;;;17.90;96.70;;;;;;5108040;27;20051;-75
2022/09/19 02:38:22;;;;;;;2.30;1.30;;;17.90;96.70;;;;;;5095883;27;20079;-76
2022/09/19 02:41:00;;;;;;;1.48;0.80;;;18.00;96.70;;;;;;5108503;27;20075;-76
2022/09/19 02:43:38;;;;;;;1.80;0.90;;;18.00;96.70;;;;;;5100194;28;20055;-76
2022/09/19 02:46:16;;;;;;;2.55;1.27;;;17.90;96.70;;;;;;5097549;27;20186;-74
2022/09/19 02:48:50;;;;;;;;;;;17.90;96.70;;;;;;5100474;28;20067;-76
2022/09/19 02:51:23;;;;;;;2.20;0.75;;;17.80;96.70;;;;;;5096920;28;19931;-76
2022/09/19 02:53:58;;;;;;;3.00;1.30;;;17.80;96.70;;;;;;5099937;28;20043;-76
2022/09/19 02:56:34;;;;;;;1.95;0.90;;;17.80;96.70;;;;;;5097050;28;20304;-76
2022/09/19 02:59:06;;;;;;;1.67;0.63;;;17.80;96.70;;;;;;5103574;28;20164;-75
2022/09/19 03:01:51;;;;;;;1.95;0.80;;;17.70;96.70;;;;;;5098010;28;20051;-77
2022/09/19 03:04:26;;;;;;;1.02;0.77;;;17.70;96.70;;;;;;5096311;28;20066;-75
2022/09/19 03:07:04;;;;;;;2.85;0.80;;;17.80;96.70;;;;;;5083675;28;20124;-76
2022/09/19 03:09:32;;;;;;;3.65;0.82;;;17.80;96.70;;;;;;5075996;28;20138;-75
2022/09/19 03:12:14;;;;;;;1.88;0.70;;;17.80;96.70;;;;;;5079622;28;20135;-75
2022/09/19 03:14:42;;;;;;;2.17;0.82;;;17.80;96.70;;;;;;5084389;28;20439;-76
2022/09/19 03:17:13;;;;;;;1.63;0.70;;;17.70;96.70;;;;;;5095800;28;20036;-76
2022/09/19 03:20:11;;;;;;;1.73;0.88;;;17.70;96.70;;;;;;5098917;27;22351;-76
2022/09/19 03:22:41;;;;;;;2.97;0.70;;;17.80;96.70;;;;;;5048579;28;21129;-76
2022/09/19 03:25:13;;;;;;;2.05;0.50;;;17.70;96.70;;;;;;5037088;28;20449;-76
2022/09/19 03:27:43;;;;;;;1.92;0.55;;;17.70;96.70;;;;;;5042678;28;20074;-75
2022/09/19 03:30:15;;;;;;;0.85;0.50;;;17.70;96.70;;;;;;5043848;28;20685;-76
2022/09/19 03:32:49;;;;;;;2.55;0.50;;;17.70;96.70;;;;;;5043182;28;20053;-76
2022/09/19 03:35:19;;;;;;;1.13;0.57;;;17.80;96.70;;;;;;5048578;28;20048;-76
2022/09/19 03:37:50;;;;;;;4.80;0.60;;;17.80;96.70;;;;;;5062972;28;20079;-76
2022/09/19 03:40:25;;;;;;;0.77;0.43;;;17.70;96.70;;;;;;5066079;28;20050;-75
2022/09/19 03:42:55;;;;;;;1.90;0.57;;;17.70;96.70;;;;;;5040234;28;20561;-76
2022/09/19 03:45:26;;;;;;;1.58;0.57;;;17.60;96.70;;;;;;5044503;28;20040;-76
2022/09/19 03:47:56;;;;;;;1.08;0.40;;;17.60;96.70;;;;;;5056009;28;20084;-75
2022/09/19 03:50:28;;;;;;;1.42;0.32;;;17.50;96.70;;;;;;5041360;28;20082;-76
2022/09/19 03:53:07;;;;;;;2.50;0.40;;;17.60;96.70;;;;;;5053700;28;20446;-76
2022/09/19 03:55:41;;;;;;;1.45;0.40;;;17.60;96.70;;;;;;5073519;28;20078;-76
2022/09/19 03:58:16;;;;;;;0.73;0.40;;;17.60;96.70;;;;;;5051449;28;20521;-75
2022/09/19 04:00:44;;;;;;;0.90;0.52;;;17.60;96.70;;;;;;5060698;28;20139;-76
2022/09/19 04:03:15;;;;;;;1.65;0.40;;;17.70;96.70;;;;;;5053458;28;20037;-78
2022/09/19 04:05:45;;;;;;;1.75;0.40;;;17.60;96.70;;;;;;5055257;28;20047;-78
2022/09/19 04:08:14;;;;;;;2.63;0.65;;;17.60;96.70;;;;;;5044695;28;20050;-78
2022/09/19 04:10:43;;;;;;;0.63;0.40;;;17.60;96.70;;;;;;5064479;28;20527;-79
2022/09/19 04:13:13;;;;;;;1.25;0.43;;;17.60;96.70;;;;;;5072527;28;21384;-79
2022/09/19 04:15:44;;;;;;;2.63;0.52;;;17.60;96.70;;;;;;5077635;28;20084;-79
2022/09/19 04:18:14;;;;;;;1.77;0.50;;;17.60;96.70;;;;;;5054833;28;20071;-78
2022/09/19 04:20:50;;;;;;;5.70;0.52;;;17.60;96.70;;;;;;5051203;28;20048;-75
2022/09/19 04:23:42;;;;;;;2.75;0.70;;;17.60;96.70;;;;;;5069827;28;20052;-75
2022/09/19 04:26:33;;;;;;;1.85;0.50;;;17.60;96.70;;;;;;5056561;28;20053;-76
2022/09/19 04:29:03;;;;;;;1.92;0.60;;;17.70;96.70;;;;;;5062301;28;20075;-76
2022/09/19 04:31:39;;;;;;;4.47;0.60;;;17.70;96.70;;;;;;5041742;28;20044;-76
2022/09/19 04:34:16;;;;;;;2.38;0.47;;;17.70;96.70;;;;;;5032753;28;20067;-75
2022/09/19 04:36:50;;;;;;;1.70;0.70;;;17.60;96.70;;;;;;5063421;28;20123;-75
2022/09/19 04:39:19;;;;;;;0.63;0.30;;;17.60;96.70;;;;;;5043456;28;20516;-76
2022/09/19 04:41:52;;;;;;;2.70;0.80;;;17.60;96.70;;;;;;5041800;28;20047;-76
2022/09/19 04:44:22;;;;;;;0.90;0.55;;;17.60;96.70;;;;;;5029793;28;20053;-76
2022/09/19 04:46:56;;;;;;;3.05;0.80;;;17.60;96.70;;;;;;5029789;28;20040;-76
2022/09/19 04:49:36;;;;;;;1.02;0.68;;;17.60;96.70;;;;;;5040102;28;20060;-76
2022/09/19 04:52:07;;;;;;;2.28;1.13;;;17.70;96.70;;;;;;5042999;28;20048;-76
2022/09/19 04:54:37;;;;;;;2.28;0.95;;;17.70;96.70;;;;;;5047668;28;20113;-77
2022/09/19 04:57:07;;;;;;;2.95;1.40;;;17.80;96.70;;;;;;5064756;28;20135;-76
2022/09/19 04:59:37;;;;;;;2.67;1.48;;;17.70;96.70;;;;;;5045533;28;20057;-76
2022/09/19 05:02:08;;;;;;;4.38;1.48;;;17.70;96.70;;;;;;5066320;28;20041;-76
2022/09/19 05:04:39;;;;;;;4.15;1.60;;;17.80;96.70;;;;;;5045407;28;20574;-76
2022/09/19 05:07:14;;;;;;;4.18;1.83;;;17.70;96.70;;;;;;5032024;28;20052;-76
2022/09/19 05:09:43;;;;;;;4.53;2.80;;;17.90;96.70;;;;;;5050643;28;20102;-76
2022/09/19 05:12:12;;;;;;;5.72;3.00;;;17.80;96.70;;;;;;5045844;28;20054;-76
2022/09/19 05:14:46;;;;;;;5.20;3.47;;;17.80;96.70;;;;;;5041068;28;20040;-75
2022/09/19 05:17:17;;;;;;;5.88;4.22;;;17.70;96.70;;;;;;5023440;28;20056;-75
2022/09/19 05:19:45;;;;;;;7.40;5.22;;;17.80;96.70;;;;;;5039361;28;20068;-77
2022/09/19 05:22:16;;;;;;;11.38;7.10;;;17.80;96.70;;;;;;5041358;28;20052;-76
2022/09/19 05:24:45;;;;;;;10.65;7.32;;;17.70;96.70;;;;;;5045485;28;20131;-76
2022/09/19 05:27:13;;;;;;;11.90;8.35;;;17.70;96.70;;;;;;5043500;28;20471;-76
2022/09/19 05:29:41;;;;;;;11.10;8.00;;;17.80;96.70;;;;;;5036453;28;20491;-75
2022/09/19 05:32:10;;;;;;;13.48;8.48;;;17.70;96.70;;;;;;5026836;28;20102;-76
2022/09/19 05:34:41;;;;;;;11.57;8.60;;;17.80;96.70;;;;;;5054965;28;20418;-76
2022/09/19 05:37:34;;;;;;;11.88;8.27;;;17.80;96.70;;;;;;5062297;28;20047;-76
2022/09/19 05:40:21;;;;;;;9.75;7.13;;;17.80;96.70;;;;;;5041702;28;20406;-76
2022/09/19 05:43:03;;;;;;;12.60;7.30;;;17.70;96.70;;;;;;5040780;28;20040;-75
2022/09/19 05:45:33;;;;;;;10.00;5.65;;;17.80;96.70;;;;;;5040736;28;20513;-76
2022/09/19 05:48:04;;;;;;;8.35;4.68;;;17.90;96.70;;;;;;5046194;28;20515;-76
2022/09/19 05:50:34;;;;;;;5.35;3.97;;;17.90;96.70;;;;;;5041153;28;20410;-76
2022/09/19 05:55:52;;;;;;;5.72;3.40;;;18.00;96.70;;;;;;5040334;28;20040;-76
2022/09/19 05:58:46;;;;;;;5.93;3.40;;;18.00;96.70;;;;;;5036486;28;20075;-76
2022/09/19 06:01:15;;;;;;;3.88;2.20;;;18.00;96.70;;;;;;5042819;28;20055;-76
2022/09/19 06:03:44;;;;;;;4.57;2.00;;;18.00;96.70;;;;;;5044922;28;20135;-76
2022/09/19 06:06:18;;;;;;;8.05;2.65;;;18.10;96.70;;;;;;5042338;28;20045;-76
2022/09/19 06:08:56;;;;;;;2.50;1.60;;;18.10;96.70;;;;;;5041618;28;20149;-76
2022/09/19 06:11:29;;;;;;;3.40;1.40;;;18.20;96.70;;;;;;5046102;28;20048;-76
2022/09/19 06:14:15;;;;;;;3.85;1.33;;;18.20;96.70;;;;;;5055511;28;20505;-75
2022/09/19 06:16:47;;;;;;;4.78;1.33;;;18.20;96.70;;;;;;5022999;28;20060;-76
2022/09/19 06:19:25;;;;;;;6.97;1.77;;;18.40;96.70;;;;;;5060970;28;20141;-77
2022/09/19 06:22:05;;;;;;;3.97;1.42;;;18.40;96.70;;;;;;5039444;28;20041;-79
2022/09/19 06:24:37;;;;;;;1.85;1.23;;;18.40;96.70;;;;;;5039162;28;20045;-77
2022/09/19 06:27:07;;;;;;;4.93;1.40;;;18.40;96.70;;;;;;5039284;28;20048;-77
2022/09/19 06:29:39;;;;;;;3.10;0.98;;;18.40;96.70;;;;;;5047181;28;20545;-77
2022/09/19 06:32:23;;;;;;;3.83;0.82;;;18.30;96.70;;;;;;5038454;28;20048;-76
2022/09/19 06:35:11;;;;;;;1.42;0.75;;;18.40;96.70;;;;;;5044167;28;20146;-77
2022/09/19 06:37:41;;;;;;;2.25;0.80;;;18.40;96.70;;;;;;5056998;28;20084;-78
2022/09/19 06:40:13;;;;;;;2.33;1.08;;;18.50;96.70;;;;;;5042736;28;20151;-77
2022/09/19 06:43:05;;;;;;;2.72;0.90;;;18.50;96.70;;;;;;5057237;28;20419;-77
2022/09/19 06:45:43;;;;;;;2.50;1.50;;;18.50;96.70;;;;;;5055288;28;20076;-78
2022/09/19 06:48:37;;;;;;;4.40;1.55;;;18.50;96.70;;;;;;5014997;28;20063;-78
2022/09/19 06:51:29;;;;;;;6.00;2.40;;;18.60;96.70;;;;;;5056353;28;20041;-81
2022/09/19 06:53:57;;;;;;;7.05;2.55;;;18.60;96.70;;;;;;5044514;28;20051;-80
2022/09/19 06:56:27;;;;;;;5.40;2.65;;;18.70;96.70;;;;;;5043216;28;20255;-78
2022/09/19 06:58:55;;;;;;;5.95;2.40;;;18.70;96.70;;;;;;5039782;28;20043;-79
2022/09/19 07:01:23;;;;;;;5.03;2.05;;;18.80;96.70;;;;;;5042846;28;20060;-78
2022/09/19 07:03:52;;;;;;;4.55;2.10;;;18.90;96.70;;;;;;5034296;28;20053;-79
2022/09/19 07:06:28;;;;;;;5.47;2.10;;;18.90;96.70;;;;;;5044527;28;20048;-78
2022/09/19 07:09:03;;;;;;;3.53;1.60;;;18.90;96.70;;;;;;5060001;28;20052;-78
2022/09/19 07:11:35;;;;;;;5.15;1.80;;;18.90;96.70;;;;;;5040438;28;20048;-79
2022/09/19 07:14:05;;;;;;;4.60;1.67;;;19.10;96.70;;;;;;5039254;28;20444;-78
2022/09/19 07:16:35;;;;;;;3.47;1.42;;;19.10;96.70;;;;;;5060454;28;20072;-78
2022/09/19 07:19:04;;;;;;;5.30;1.95;;;19.30;96.70;;;;;;5055080;28;20061;-78
2022/09/19 07:22:06;;;;;;;2.95;1.30;;;19.40;96.70;;;;;;5027183;28;20453;-78
2022/09/19 07:24:55;;;;;;;1.50;1.10;;;19.50;96.70;;;;;;5041078;28;20052;-82
2022/09/19 07:27:31;;;;;;;3.33;1.02;;;19.50;96.70;;;;;;5040949;28;20143;-81
2022/09/19 07:30:00;;;;;;;2.53;1.38;;;19.70;96.70;;;;;;5061552;28;20041;-81
2022/09/19 07:32:29;;;;;;;2.00;1.27;;;19.70;96.70;;;;;;5039947;28;20061;-81
2022/09/19 07:34:57;;;;;;;3.85;1.27;;;19.90;96.70;;;;;;5045333;28;20067;-81
2022/09/19 07:37:25;;;;;;;4.10;1.70;;;19.90;96.70;;;;;;5040304;28;20063;-82
2022/09/19 07:40:15;;;;;;;26.05;3.83;;;19.90;96.70;;;;;;5041390;28;20429;-80
2022/09/19 07:43:02;;;;;;;7.45;2.17;;;20.00;96.70;;;;;;5037092;28;20530;-81
2022/09/19 07:46:09;;;;;;;5.97;2.35;;;20.20;96.70;;;;;;4995668;28;20094;-80
2022/09/19 07:48:42;;;;;;;6.25;3.13;;;20.20;96.70;;;;;;4987901;28;20155;-81
2022/09/19 07:51:23;;;;;;;5.90;3.25;;;20.20;96.70;;;;;;5006041;28;20046;-83
2022/09/19 07:53:52;;;;;;;9.20;3.25;;;20.20;96.70;;;;;;4995075;28;20048;-83
2022/09/19 07:56:20;;;;;;;6.25;3.45;;;20.30;96.70;;;;;;4998395;28;20046;-82
2022/09/19 07:58:50;;;;;;;8.70;3.92;;;20.40;96.70;;;;;;4986846;28;20129;-81
2022/09/19 08:05:08;;;;;;;8.57;4.45;;;20.80;96.70;;;;;;4991306;28;20046;-80
2022/09/19 08:07:36;;;;;;;7.40;4.75;;;21.00;96.70;;;;;;5000706;28;20096;-83
2022/09/19 08:10:07;;;;;;;7.13;4.18;;;21.20;96.70;;;;;;4998189;28;20102;-84
2022/09/19 08:12:44;;;;;;;7.25;4.80;;;21.30;96.70;;;;;;4990521;28;20045;-83
2022/09/19 08:15:17;;;;;;;7.40;4.50;;;21.30;96.70;;;;;;4994830;28;20049;-81
2022/09/19 08:17:57;;;;;;;6.43;4.65;;;21.20;96.70;;;;;;5039254;28;20094;-82
2022/09/19 08:20:28;;;;;;;5.45;3.88;;;21.20;96.70;;;;;;5050408;28;20052;-85
2022/09/19 08:22:58;;;;;;;5.32;3.35;;;21.20;96.70;;;;;;5033014;28;21249;-82
2022/09/19 08:25:27;;;;;;;8.88;3.45;;;21.10;96.70;;;;;;5060945;28;20090;-82
2022/09/19 08:27:58;;;;;;;6.95;3.35;;;21.10;96.70;;;;;;5051438;28;20055;-83
2022/09/19 08:30:28;;;;;;;10.18;5.18;;;21.10;96.70;;;;;;5059008;28;20076;-81
2022/09/19 08:32:56;;;;;;;9.15;5.88;;;21.10;96.70;;;;;;5048278;28;20468;-81
2022/09/19 08:35:24;;;;;;;16.40;8.32;;;21.00;96.70;;;;;;5047923;28;20094;-80
2022/09/19 08:37:55;;;;;;;14.93;8.52;;;21.00;96.70;;;;;;5030619;28;20049;-80
2022/09/19 08:40:27;;;;;;;13.93;8.23;;;21.00;96.70;;;;;;5059008;28;20074;-76
2022/09/19 08:43:07;;;;;;;15.70;8.60;;;20.90;96.70;;;;;;5043555;28;20044;-81
2022/09/19 08:46:01;;;;;;;17.98;8.77;;;20.90;96.70;;;;;;5040620;28;20097;-79
2022/09/19 08:48:36;;;;;;;16.65;8.55;;;20.80;96.70;;;;;;5049369;28;20595;-79
2022/09/19 08:51:10;;;;;;;16.85;8.23;;;20.80;96.70;;;;;;5048488;28;20084;-77
2022/09/19 08:53:44;;;;;;;20.58;8.88;;;20.80;96.70;;;;;;5047570;28;20502;-79
2022/09/19 08:56:14;;;;;;;18.70;9.38;;;20.80;96.70;;;;;;5049127;28;20513;-78
2022/09/19 08:58:47;;;;;;;17.42;8.38;;;20.90;96.70;;;;;;5064263;28;20047;-78
2022/09/19 09:01:36;;;;;;;16.13;7.70;;;21.00;96.70;;;;;;5046259;28;20067;-78
2022/09/19 09:04:30;;;;;;;20.15;8.85;;;21.00;96.70;;;;;;5052128;28;20057;-78
2022/09/19 09:07:28;;;;;;;15.52;8.32;;;21.10;96.70;;;;;;5047193;28;20044;-78
2022/09/19 09:10:24;;;;;;;18.02;7.70;;;21.10;96.70;;;;;;5045003;28;20045;-78
2022/09/19 09:13:04;;;;;;;16.17;8.77;;;21.20;96.70;;;;;;5032050;28;20155;-77
2022/09/19 09:15:49;;;;;;;13.00;7.28;;;21.30;96.70;;;;;;5039483;28;20055;-77
2022/09/19 09:18:31;;;;;;;11.63;5.25;;;21.40;96.70;;;;;;5048792;28;21468;-77
2022/09/19 09:21:04;;;;;;;10.10;5.13;;;21.40;96.70;;;;;;5031492;28;20070;-85
2022/09/19 09:23:36;;;;;;;11.98;4.95;;;21.30;96.70;;;;;;5043251;28;20068;-76
2022/09/19 09:26:40;;;;;;;11.23;4.90;;;21.40;96.70;;;;;;5048175;28;20049;-78
2022/09/19 09:29:17;;;;;;;9.93;4.93;;;21.50;96.70;;;;;;5030267;28;20467;-79
2022/09/19 09:32:03;;;;;;;7.28;4.43;;;21.60;96.70;;;;;;5045280;28;20139;-79
2022/09/19 09:34:40;;;;;;;10.60;5.05;;;21.70;96.70;;;;;;5036990;28;20521;-81
2022/09/19 09:37:18;;;;;;;9.38;5.00;;;21.90;96.70;;;;;;5044838;28;20045;-76
2022/09/19 09:40:00;;;;;;;7.72;4.50;;;22.00;96.70;;;;;;5034911;28;20141;-75
2022/09/19 09:42:40;;;;;;;8.07;4.25;;;22.10;96.70;;;;;;5023375;28;20106;-76
2022/09/19 09:45:18;;;;;;;7.88;4.43;;;22.20;96.70;;;;;;5051814;28;20048;-76
2022/09/19 09:48:04;;;;;;;8.13;4.70;;;22.30;96.70;;;;;;5062612;28;20093;-75
2022/09/19 09:50:48;;;;;;;8.52;3.88;;;22.30;96.70;;;;;;5048313;28;20044;-76
2022/09/19 09:53:29;;;;;;;6.30;3.38;;;22.30;96.70;;;;;;5027909;28;20088;-76
2022/09/19 09:56:17;;;;;;;6.28;3.35;;;22.20;96.70;;;;;;5044294;28;20062;-76
2022/09/19 10:03:33;;;;;;;9.55;4.03;;;22.20;96.70;;;;;;5020643;28;20418;-79
2022/09/19 10:05:02;;;;;;;9.45;4.68;;;22.40;96.70;;;;;;5045935;28;20558;-79
2022/09/19 10:07:45;;;;;;;10.93;5.55;;;22.50;96.70;;;;;;5045257;28;20056;-80
2022/09/19 10:10:19;;;;;;;10.95;5.30;;;22.50;96.70;;;;;;5048957;28;20048;-77
2022/09/19 10:12:55;;;;;;;8.23;4.63;;;22.60;96.70;;;;;;5024042;28;20048;-79
2022/09/19 10:15:31;;;;;;;9.50;3.97;;;22.60;96.70;;;;;;5028814;28;20044;-79
2022/09/19 10:18:15;;;;;;;11.15;4.22;;;22.70;96.70;;;;;;5019063;28;20436;-79
2022/09/19 10:20:53;;;;;;;10.57;4.68;;;22.80;96.70;;;;;;5015006;28;20057;-80
2022/09/19 10:23:32;;;;;;;7.63;3.58;;;23.00;96.70;;;;;;5014455;28;20057;-80
2022/09/19 10:26:19;;;;;;;9.80;3.85;;;23.10;96.70;;;;;;5015821;28;20049;-79
2022/09/19 10:28:59;;;;;;;8.40;3.88;;;23.20;96.70;;;;;;5016824;28;20041;-78
2022/09/19 10:31:41;;;;;;;7.00;3.35;;;23.10;96.70;;;;;;5021306;28;20049;-78
2022/09/19 10:34:35;;;;;;;6.22;3.20;;;23.20;96.70;;;;;;5015621;28;20065;-79
2022/09/19 10:37:12;;;;;;;6.22;2.58;;;23.30;96.70;;;;;;5007722;28;20561;-79
2022/09/19 10:39:47;;;;;;;8.02;2.67;;;23.60;96.70;;;;;;5018033;28;20507;-78
2022/09/19 10:42:34;;;;;;;3.95;2.10;;;23.80;96.70;;;;;;5011293;28;20050;-81
2022/09/19 10:45:25;;;;;;;5.38;2.40;;;23.60;96.70;;;;;;5015277;28;20046;-80
2022/09/19 10:48:02;;;;;;;5.55;2.50;;;23.60;96.70;;;;;;5015968;28;20073;-80
2022/09/19 10:50:34;;;;;;;5.93;2.40;;;24.00;96.70;;;;;;5012312;28;20050;-79
2022/09/19 10:53:18;;;;;;;5.13;2.38;;;24.00;96.70;;;;;;5021202;28;20047;-78
2022/09/19 10:55:49;;;;;;;6.97;2.35;;;23.90;96.70;;;;;;5031059;28;20073;-79
2022/09/19 10:58:26;;;;;;;4.85;1.90;;;23.80;96.70;;;;;;5015723;28;20061;-80
2022/09/19 11:01:20;;;;;;;3.17;1.65;;;23.80;96.70;;;;;;5018110;28;20128;-79
2022/09/19 11:04:24;;;;;;;4.30;1.50;;;24.00;96.70;;;;;;5004749;28;20495;-80
2022/09/19 11:06:57;;;;;;;3.22;1.00;;;24.10;96.70;;;;;;5016039;28;20045;-80
2022/09/19 11:09:34;;;;;;;6.03;1.42;;;24.40;96.70;;;;;;5017922;28;20459;-80
2022/09/19 11:12:13;;;;;;;3.25;1.00;;;24.60;96.70;;;;;;5023552;28;20057;-80
2022/09/19 11:14:45;;;;;;;5.03;1.08;;;24.80;96.70;;;;;;5011317;28;20496;-79
2022/09/19 11:17:51;;;;;;;3.83;1.30;;;24.80;96.70;;;;;;5010467;28;20060;-80
2022/09/19 11:20:57;;;;;;;5.15;1.10;;;24.80;96.70;;;;;;5014596;28;20061;-80
2022/09/19 11:24:01;;;;;;;2.50;0.98;;;24.90;96.70;;;;;;5015791;28;20813;-80
2022/09/19 11:26:43;;;;;;;2.63;0.90;;;24.90;96.70;;;;;;5024265;28;20077;-80
2022/09/19 11:29:37;;;;;;;3.30;1.20;;;25.10;96.70;;;;;;5020269;28;20042;-80
2022/09/19 11:32:21;;;;;;;3.95;0.95;;;25.30;96.70;;;;;;4999585;28;20116;-79
2022/09/19 11:35:25;;;;;;;2.55;0.95;;;25.40;96.70;;;;;;5018934;28;20680;-80
2022/09/19 11:38:15;;;;;;;2.55;0.93;;;25.40;96.70;;;;;;5020399;28;20033;-80
2022/09/19 11:41:31;;;;;;;4.07;1.00;;;25.40;96.70;;;;;;5035082;28;20049;-79
2022/09/19 11:44:23;;;;;;;3.42;1.20;;;25.50;96.70;;;;;;5018338;28;20056;-79
2022/09/19 11:47:22;;;;;;;4.47;1.20;;;25.70;96.70;;;;;;5017929;28;20591;-77
2022/09/19 11:50:21;;;;;;;1.35;0.93;;;25.70;96.70;;;;;;5008399;28;20149;-81
2022/09/19 11:53:20;;;;;;;3.70;1.07;;;25.80;96.70;;;;;;4970961;28;20054;-81
2022/09/19 11:56:19;;;;;;;2.03;1.10;;;25.80;96.70;;;;;;4943022;28;20408;-81
2022/09/19 11:58:54;;;;;;;1.30;0.75;;;26.00;96.70;;;;;;4970998;28;20144;-82
2022/09/19 12:01:36;;;;;;;2.33;1.10;;;26.00;96.70;;;;;;4953793;28;20077;-81
2022/09/19 12:04:25;;;;;;;3.20;1.00;;;26.10;96.70;;;;;;4954814;28;20050;-80
2022/09/19 12:07:18;;;;;;;2.75;0.65;;;26.20;96.70;;;;;;4966323;28;20058;-80
2022/09/19 12:09:59;;;;;;;3.00;0.77;;;26.30;96.70;;;;;;4962174;28;20074;-78
2022/09/19 12:12:36;;;;;;;2.00;0.70;;;26.40;96.70;;;;;;4963283;28;20063;-81
2022/09/19 12:15:38;;;;;;;3.70;1.10;;;26.30;96.70;;;;;;4970446;28;20136;-81
2022/09/19 12:18:12;;;;;;;4.80;0.93;;;26.60;96.70;;;;;;4952650;28;20173;-82
2022/09/19 12:20:48;;;;;;;4.68;0.75;;;26.70;96.70;;;;;;4934556;28;20218;-81
2022/09/19 12:26:26;;;;;;;2.38;0.50;;;26.90;96.70;;;;;;4945721;28;20057;-81
2022/09/19 12:29:02;;;;;;;2.00;0.50;;;27.00;96.70;;;;;;4951641;28;20058;-78
2022/09/19 12:31:36;;;;;;;2.10;0.60;;;27.00;96.70;;;;;;4990430;28;20137;-79
2022/09/19 12:34:14;;;;;;;3.08;0.80;;;27.10;96.70;;;;;;4986789;28;20058;-78
2022/09/19 12:36:52;;;;;;;2.72;0.77;;;27.00;96.70;;;;;;4996160;28;20065;-78
2022/09/19 12:39:31;;;;;;;3.88;1.13;;;27.10;96.70;;;;;;4982238;28;20046;-78
2022/09/19 12:42:10;;;;;;;3.15;1.02;;;26.90;96.70;;;;;;5013321;28;20886;-79
2022/09/19 12:44:52;;;;;;;3.55;1.08;;;26.90;96.70;;;;;;4990190;28;20046;-78
2022/09/19 12:47:34;;;;;;;2.22;0.70;;;27.00;96.70;;;;;;4991037;28;20042;-79
2022/09/19 12:50:21;;;;;;;2.97;1.02;;;27.10;96.70;;;;;;4992152;28;20045;-78
2022/09/19 12:53:07;;;;;;;3.03;0.80;;;27.00;96.70;;;;;;5021668;28;20137;-79
2022/09/19 12:55:45;;;;;;;3.35;1.27;;;27.00;96.70;;;;;;5022790;28;20570;-79
2022/09/19 12:58:16;;;;;;;2.38;0.77;;;27.00;96.70;;;;;;5024883;28;20664;-80
2022/09/19 13:00:45;;;;;;;3.00;0.80;;;26.90;96.70;;;;;;5023828;28;20045;-78
2022/09/19 13:03:19;;;;;;;4.70;1.10;;;26.90;96.70;;;;;;5023185;28;20128;-78
2022/09/19 13:05:52;;;;;;;2.92;1.30;;;26.90;96.70;;;;;;5032561;28;20041;-79
2022/09/19 13:08:28;;;;;;;2.35;1.20;;;27.00;96.70;;;;;;5022263;28;20772;-78
2022/09/19 13:11:05;;;;;;;1.97;1.10;;;26.80;96.70;;;;;;5027533;28;20046;-79
2022/09/19 13:13:42;;;;;;;4.43;1.33;;;26.90;96.70;;;;;;5027010;28;20335;-79
2022/09/19 13:16:13;;;;;;;4.78;1.17;;;26.80;96.70;;;;;;5028841;28;20142;-77
2022/09/19 13:24:35;;;;;;;4.57;0.88;;;27.10;96.70;;;;;;5021491;28;20132;-77
2022/09/19 13:27:05;;;;;;;2.90;1.13;;;27.20;96.70;;;;;;5020913;28;20049;-81
2022/09/19 13:29:49;;;;;;;3.30;1.48;;;27.20;96.70;;;;;;5024073;28;20686;-79
2022/09/19 13:32:34;;;;;;;2.65;0.80;;;27.20;96.70;;;;;;5019595;28;20055;-77
2022/09/19 13:35:22;;;;;;;2.47;1.20;;;27.30;96.70;;;;;;5026298;28;20559;-80
2022/09/19 13:37:55;;;;;;;5.03;0.98;;;27.20;96.70;;;;;;5019795;28;20385;-78
2022/09/19 13:40:56;;;;;;;3.63;1.13;;;27.10;96.70;;;;;;5017664;28;20954;-78
2022/09/19 13:43:37;;;;;;;3.35;1.05;;;27.20;96.70;;;;;;5013507;28;20132;-78
2022/09/19 13:46:10;;;;;;;2.53;1.17;;;27.20;96.70;;;;;;5015848;28;20477;-81
2022/09/19 13:48:47;;;;;;;2.72;0.95;;;27.30;96.70;;;;;;5024893;28;20497;-81
2022/09/19 13:51:28;;;;;;;2.08;0.68;;;27.50;96.70;;;;;;5025345;28;20116;-82
2022/09/19 13:54:31;;;;;;;3.97;1.30;;;27.60;96.70;;;;;;5021825;28;20049;-84
2022/09/19 13:57:06;;;;;;;3.78;0.93;;;27.80;96.70;;;;;;5021362;28;20077;-80
2022/09/19 13:59:37;;;;;;;2.65;0.73;;;28.00;96.70;;;;;;5021800;28;20553;-81